Time;durP1;ratioP1;P1;durP2;ratioP2;P2;SDS_P1;SDS_P2;PMS_P1;PMS_P2;Temp;Humidity;BMP_temperature;BMP_pressure;BME280_temperature;BME280_humidity;BME280_pressure;Samples;Min_cycle;Max_cycle;Signal;HPM_P1;HPM_P2
2024/01/17 00:02:50;;;;;;;9.43;6.87;;;-3.20;73.70;;;;;;6288683;28;20189;-67
2024/01/17 00:05:51;;;;;;;9.17;7.07;;;-3.30;74.10;;;;;;6266352;28;20667;-68
2024/01/17 00:08:52;;;;;;;10.77;7.03;;;-3.30;74.20;;;;;;6262004;28;20231;-67
2024/01/17 00:11:52;;;;;;;13.10;7.03;;;-3.30;74.10;;;;;;6273254;28;20198;-67
2024/01/17 00:14:53;;;;;;;9.10;6.73;;;-3.30;73.70;;;;;;6265091;28;20201;-67
2024/01/17 00:17:54;;;;;;;9.60;7.07;;;-3.40;74.10;;;;;;6256349;28;20227;-67
2024/01/17 00:20:54;;;;;;;10.87;7.07;;;-3.40;74.30;;;;;;6309998;28;20190;-67
2024/01/17 00:23:55;;;;;;;12.37;6.50;;;-3.50;74.60;;;;;;6269056;28;20201;-67
2024/01/17 00:26:56;;;;;;;10.13;6.77;;;-3.50;74.90;;;;;;6275026;28;20250;-68
2024/01/17 00:29:57;;;;;;;13.10;7.07;;;-3.50;74.40;;;;;;6280314;28;20202;-67
2024/01/17 00:32:58;;;;;;;8.40;6.17;;;-3.60;74.70;;;;;;6268403;28;20215;-68
2024/01/17 00:35:59;;;;;;;11.03;6.93;;;-3.60;74.80;;;;;;6275400;28;20198;-67
2024/01/17 00:39:00;;;;;;;11.97;6.80;;;-3.60;75.10;;;;;;6257920;28;20194;-67
2024/01/17 00:42:01;;;;;;;9.93;6.07;;;-3.60;74.60;;;;;;6302229;28;20258;-67
2024/01/17 00:45:03;;;;;;;10.60;6.40;;;-3.60;75.20;;;;;;6283855;28;20239;-67
2024/01/17 00:48:04;;;;;;;11.07;6.27;;;-3.60;74.90;;;;;;6315098;28;20250;-67
2024/01/17 00:51:05;;;;;;;9.60;6.43;;;-3.60;75.00;;;;;;6266022;28;20190;-67
2024/01/17 00:54:06;;;;;;;9.57;6.03;;;-3.50;75.30;;;;;;6271458;28;20195;-67
2024/01/17 00:57:06;;;;;;;11.43;6.47;;;-3.40;74.70;;;;;;6266606;28;20264;-68
2024/01/17 01:00:08;;;;;;;7.80;5.67;;;-3.40;74.90;;;;;;6254914;28;20246;-68
2024/01/17 01:03:08;;;;;;;11.10;5.93;;;-3.50;74.50;;;;;;6282222;28;20186;-68
2024/01/17 01:06:09;;;;;;;8.27;5.30;;;-3.40;74.70;;;;;;6286663;28;20214;-68
2024/01/17 01:09:10;;;;;;;8.67;4.67;;;-3.40;74.30;;;;;;6265343;28;20179;-68
2024/01/17 01:12:10;;;;;;;8.37;5.50;;;-3.40;74.10;;;;;;6273509;28;20190;-68
2024/01/17 01:15:11;;;;;;;7.73;5.13;;;-3.50;74.20;;;;;;6264720;28;20189;-68
2024/01/17 01:18:12;;;;;;;10.10;5.90;;;-3.40;74.20;;;;;;6267442;28;20214;-68
2024/01/17 01:21:14;;;;;;;8.13;5.27;;;-3.50;74.40;;;;;;6289802;28;20178;-68
2024/01/17 01:24:14;;;;;;;9.50;5.93;;;-3.50;74.40;;;;;;6305662;28;20189;-68
2024/01/17 01:27:15;;;;;;;9.40;5.73;;;-3.60;74.40;;;;;;6270313;28;20182;-68
2024/01/17 01:30:16;;;;;;;10.63;5.20;;;-3.60;74.20;;;;;;6287737;28;20186;-68
2024/01/17 01:33:17;;;;;;;8.10;5.87;;;-3.60;74.20;;;;;;6311758;28;20185;-68
2024/01/17 01:36:17;;;;;;;9.87;6.07;;;-3.60;74.30;;;;;;6266104;28;20222;-68
2024/01/17 01:39:18;;;;;;;12.13;6.63;;;-3.60;74.00;;;;;;6273214;28;20202;-68
2024/01/17 01:42:19;;;;;;;8.17;5.80;;;-3.60;74.50;;;;;;6277879;28;20200;-68
2024/01/17 01:45:19;;;;;;;11.63;5.90;;;-3.70;74.30;;;;;;6277631;28;20276;-68
2024/01/17 01:48:20;;;;;;;7.27;5.53;;;-3.70;74.00;;;;;;6281711;28;20205;-67
2024/01/17 01:51:22;;;;;;;9.10;5.63;;;-3.80;74.50;;;;;;6257500;28;20199;-67
2024/01/17 01:54:23;;;;;;;11.37;7.13;;;-3.80;75.00;;;;;;6280306;28;20199;-67
2024/01/17 01:57:24;;;;;;;14.77;7.27;;;-3.80;74.70;;;;;;6261158;28;20246;-67
2024/01/17 02:00:25;;;;;;;13.83;6.90;;;-3.80;74.70;;;;;;6249418;28;20570;-68
2024/01/17 02:03:26;;;;;;;9.20;6.23;;;-3.80;74.30;;;;;;6249672;28;20184;-68
2024/01/17 02:06:33;;;;;;;9.10;5.70;;;-3.80;74.40;;;;;;6282660;28;20214;-68
2024/01/17 02:09:33;;;;;;;10.80;6.37;;;-3.80;73.80;;;;;;6274147;28;20192;-67
2024/01/17 02:12:34;;;;;;;9.37;5.53;;;-3.90;74.30;;;;;;6273413;28;20226;-68
2024/01/17 02:15:35;;;;;;;8.93;5.80;;;-3.90;74.50;;;;;;6256757;28;20187;-67
2024/01/17 02:18:36;;;;;;;9.03;5.97;;;-3.90;74.70;;;;;;6267056;28;20306;-68
2024/01/17 02:21:36;;;;;;;8.40;5.47;;;-3.90;74.50;;;;;;6269203;28;20248;-68
2024/01/17 02:24:37;;;;;;;7.67;5.37;;;-4.00;74.60;;;;;;6279233;28;20231;-68
2024/01/17 02:27:38;;;;;;;9.77;5.83;;;-4.00;74.90;;;;;;6257514;28;20188;-67
2024/01/17 02:30:39;;;;;;;11.47;5.40;;;-3.90;74.30;;;;;;6259601;28;20290;-68
2024/01/17 02:33:40;;;;;;;9.73;5.67;;;-3.90;74.40;;;;;;6249277;28;20192;-67
2024/01/17 02:36:40;;;;;;;10.60;5.43;;;-3.90;74.20;;;;;;6250743;28;20255;-68
2024/01/17 02:39:41;;;;;;;8.13;4.60;;;-4.00;74.80;;;;;;6281196;28;20254;-68
2024/01/17 02:42:43;;;;;;;8.90;4.70;;;-3.90;74.70;;;;;;6265226;28;20198;-68
2024/01/17 02:45:44;;;;;;;9.23;4.67;;;-3.80;75.20;;;;;;6270367;28;20193;-68
2024/01/17 02:48:45;;;;;;;6.43;5.03;;;-3.80;74.80;;;;;;6250731;28;20202;-68
2024/01/17 02:51:46;;;;;;;8.63;4.30;;;-3.70;74.90;;;;;;6280395;28;20193;-67
2024/01/17 02:54:46;;;;;;;7.77;4.80;;;-3.60;74.70;;;;;;6263663;28;20195;-67
2024/01/17 02:57:47;;;;;;;7.50;4.90;;;-3.60;74.50;;;;;;6278104;28;20211;-67
2024/01/17 03:00:48;;;;;;;11.73;5.10;;;-3.60;74.60;;;;;;6268836;28;20239;-68
2024/01/17 03:03:48;;;;;;;7.87;5.40;;;-3.60;74.80;;;;;;6264309;28;20291;-67
2024/01/17 03:06:51;;;;;;;8.03;5.00;;;-3.60;74.60;;;;;;6256377;28;20198;-68
2024/01/17 03:09:51;;;;;;;7.27;5.20;;;-3.50;75.40;;;;;;6255938;28;20249;-68
2024/01/17 03:12:52;;;;;;;7.97;5.43;;;-3.40;75.50;;;;;;6260442;28;20195;-68
2024/01/17 03:15:53;;;;;;;9.90;5.73;;;-3.30;74.90;;;;;;6235871;28;20201;-68
2024/01/17 03:18:54;;;;;;;7.60;5.33;;;-3.20;75.10;;;;;;6251228;28;20220;-68
2024/01/17 03:21:55;;;;;;;9.10;5.80;;;-3.20;74.70;;;;;;6260698;28;20187;-68
2024/01/17 03:24:56;;;;;;;7.90;4.97;;;-3.20;74.70;;;;;;6271287;28;20199;-68
2024/01/17 03:27:56;;;;;;;7.10;4.87;;;-3.20;74.80;;;;;;6243310;28;20192;-68
2024/01/17 03:30:57;;;;;;;6.90;4.90;;;-3.20;74.80;;;;;;6255300;28;20275;-68
2024/01/17 03:33:58;;;;;;;8.53;4.83;;;-3.10;75.00;;;;;;6253520;28;20231;-68
2024/01/17 03:36:58;;;;;;;7.83;4.30;;;-3.10;74.70;;;;;;6249264;28;20349;-68
2024/01/17 03:39:59;;;;;;;8.50;5.00;;;-3.10;74.80;;;;;;6255909;28;20236;-67
2024/01/17 03:43:00;;;;;;;6.37;4.63;;;-3.10;75.00;;;;;;6265358;28;20274;-68
2024/01/17 03:46:01;;;;;;;8.57;4.47;;;-3.20;75.30;;;;;;6247672;28;20224;-68
2024/01/17 03:49:02;;;;;;;8.77;5.20;;;-3.20;75.00;;;;;;6251869;28;20191;-68
2024/01/17 03:52:03;;;;;;;6.83;4.37;;;-3.20;74.90;;;;;;6261720;28;20196;-67
2024/01/17 03:55:04;;;;;;;7.13;4.70;;;-3.20;75.10;;;;;;6248876;28;20202;-67
2024/01/17 03:58:04;;;;;;;9.43;5.50;;;-3.10;75.20;;;;;;6256956;28;20208;-68
2024/01/17 04:01:05;;;;;;;7.73;4.73;;;-3.10;75.10;;;;;;6267354;28;20200;-68
2024/01/17 04:04:07;;;;;;;6.60;5.27;;;-3.10;75.60;;;;;;6267101;28;20191;-68
2024/01/17 04:07:09;;;;;;;7.50;5.67;;;-3.10;75.50;;;;;;6271434;28;20201;-68
2024/01/17 04:10:10;;;;;;;7.73;5.23;;;-3.00;75.60;;;;;;6292928;28;20190;-68
2024/01/17 04:13:10;;;;;;;6.97;4.70;;;-3.00;75.00;;;;;;6291297;28;20272;-67
2024/01/17 04:16:12;;;;;;;7.37;5.07;;;-3.00;75.10;;;;;;6264647;28;20227;-67
2024/01/17 04:19:13;;;;;;;6.77;4.77;;;-3.00;75.80;;;;;;6265383;28;20190;-67
2024/01/17 04:22:14;;;;;;;8.30;5.07;;;-3.00;75.50;;;;;;6284074;28;20278;-67
2024/01/17 04:25:14;;;;;;;5.80;4.23;;;-3.00;75.50;;;;;;6263302;28;20191;-67
2024/01/17 04:28:17;;;;;;;9.50;5.23;;;-2.90;75.40;;;;;;6276702;28;20201;-67
2024/01/17 04:31:28;;;;;;;6.40;5.07;;;-2.90;75.20;;;;;;6281788;28;20198;-67
2024/01/17 04:34:29;;;;;;;10.87;5.87;;;-2.90;75.50;;;;;;6299215;28;20194;-67
2024/01/17 04:37:30;;;;;;;9.73;5.90;;;-2.80;75.70;;;;;;6281700;28;20211;-66
2024/01/17 04:40:31;;;;;;;8.37;5.70;;;-2.80;75.50;;;;;;6303210;28;20193;-66
2024/01/17 04:43:31;;;;;;;7.07;4.77;;;-2.80;75.70;;;;;;6272329;28;20200;-66
2024/01/17 04:46:33;;;;;;;7.03;4.40;;;-2.80;75.70;;;;;;6269942;28;20202;-66
2024/01/17 04:49:35;;;;;;;8.77;4.83;;;-2.70;75.70;;;;;;6258260;28;20198;-66
2024/01/17 04:52:35;;;;;;;8.47;5.13;;;-2.70;75.70;;;;;;6287677;28;20233;-66
2024/01/17 04:55:39;;;;;;;9.17;5.37;;;-2.70;75.60;;;;;;6267490;28;20198;-66
2024/01/17 04:58:40;;;;;;;8.50;5.50;;;-2.70;75.60;;;;;;6291696;28;20260;-66
2024/01/17 05:01:41;;;;;;;6.40;4.60;;;-2.80;75.70;;;;;;6308445;28;20196;-66
2024/01/17 05:04:43;;;;;;;6.73;4.93;;;-2.70;75.80;;;;;;6291291;28;20190;-66
2024/01/17 05:07:44;;;;;;;8.80;4.77;;;-2.70;75.50;;;;;;6267852;28;20198;-66
2024/01/17 05:10:45;;;;;;;9.53;4.97;;;-2.60;75.60;;;;;;6282552;28;20189;-67
2024/01/17 05:13:46;;;;;;;8.47;4.70;;;-2.50;75.60;;;;;;6306796;28;20194;-67
2024/01/17 05:16:46;;;;;;;5.30;4.40;;;-2.40;75.10;;;;;;6294006;28;20580;-67
2024/01/17 05:19:47;;;;;;;6.30;4.47;;;-2.40;74.30;;;;;;6271157;28;20207;-72
2024/01/17 05:22:48;;;;;;;7.43;4.80;;;-2.30;74.10;;;;;;6264385;28;20194;-73
2024/01/17 05:25:48;;;;;;;11.73;4.73;;;-2.30;74.20;;;;;;6267632;28;20190;-68
2024/01/17 05:28:49;;;;;;;7.43;4.60;;;-2.30;74.20;;;;;;6275463;28;20194;-66
2024/01/17 05:31:50;;;;;;;6.77;4.97;;;-2.30;74.80;;;;;;6258322;28;20219;-67
2024/01/17 05:34:53;;;;;;;9.27;5.03;;;-2.30;74.60;;;;;;6254645;28;20235;-67
2024/01/17 05:37:53;;;;;;;6.40;4.17;;;-2.30;74.60;;;;;;6296451;28;20212;-68
2024/01/17 05:40:54;;;;;;;10.37;5.47;;;-2.20;74.00;;;;;;6260211;28;20190;-67
2024/01/17 05:43:55;;;;;;;7.47;5.07;;;-2.20;74.50;;;;;;6266934;28;20194;-67
2024/01/17 05:46:55;;;;;;;7.57;5.10;;;-2.20;74.70;;;;;;6282978;28;20192;-65
2024/01/17 05:49:57;;;;;;;7.90;4.33;;;-2.20;74.10;;;;;;6264022;28;20275;-65
2024/01/17 05:52:57;;;;;;;7.53;4.83;;;-2.20;74.50;;;;;;6278770;28;20190;-65
2024/01/17 05:55:58;;;;;;;7.43;5.13;;;-2.10;74.60;;;;;;6273929;28;20198;-65
2024/01/17 05:58:59;;;;;;;8.70;5.10;;;-2.10;74.10;;;;;;6256341;28;20243;-65
2024/01/17 06:01:59;;;;;;;6.57;4.37;;;-2.10;74.40;;;;;;6260617;28;20194;-65
2024/01/17 06:05:02;;;;;;;7.40;5.17;;;-2.10;73.80;;;;;;6283091;28;20187;-65
2024/01/17 06:08:03;;;;;;;6.80;5.03;;;-2.10;73.80;;;;;;6297212;28;20231;-65
2024/01/17 06:11:04;;;;;;;6.83;4.60;;;-2.10;73.90;;;;;;6284595;28;20198;-65
2024/01/17 06:14:05;;;;;;;7.73;4.47;;;-2.10;74.00;;;;;;6299502;28;20194;-65
2024/01/17 06:17:06;;;;;;;8.77;5.10;;;-2.00;74.40;;;;;;6267881;28;20241;-65
2024/01/17 06:20:09;;;;;;;6.47;4.23;;;-2.00;74.70;;;;;;6287135;28;20190;-65
2024/01/17 06:23:10;;;;;;;6.43;4.33;;;-2.00;74.10;;;;;;6262736;28;20221;-65
2024/01/17 06:26:11;;;;;;;7.07;4.17;;;-2.00;73.80;;;;;;6267414;28;20206;-65
2024/01/17 06:29:12;;;;;;;5.63;4.20;;;-1.90;73.50;;;;;;6288834;28;20202;-65
2024/01/17 06:32:13;;;;;;;7.57;4.03;;;-1.90;73.90;;;;;;6278873;28;20192;-65
2024/01/17 06:35:14;;;;;;;6.33;4.43;;;-1.90;73.40;;;;;;6280044;28;20261;-65
2024/01/17 06:38:14;;;;;;;7.03;4.73;;;-1.90;73.00;;;;;;6305764;28;20203;-65
2024/01/17 06:41:15;;;;;;;6.93;5.00;;;-1.80;73.50;;;;;;6262390;28;20189;-65
2024/01/17 06:44:16;;;;;;;6.63;5.00;;;-1.80;74.40;;;;;;6269548;28;20187;-65
2024/01/17 06:47:16;;;;;;;9.93;5.00;;;-1.80;74.40;;;;;;6275071;28;20373;-65
2024/01/17 06:50:18;;;;;;;8.03;5.40;;;-1.80;74.10;;;;;;6263870;28;20245;-65
2024/01/17 06:53:21;;;;;;;8.17;5.30;;;-1.80;74.30;;;;;;6263040;28;20193;-65
2024/01/17 06:56:22;;;;;;;8.80;5.47;;;-1.80;74.20;;;;;;6274667;28;20189;-65
2024/01/17 06:59:23;;;;;;;8.07;5.40;;;-1.80;74.50;;;;;;6281193;28;20297;-65
2024/01/17 07:02:23;;;;;;;6.87;4.70;;;-1.80;74.40;;;;;;6262998;28;20188;-65
2024/01/17 07:05:24;;;;;;;8.50;6.13;;;-1.80;74.10;;;;;;6283620;28;20215;-65
2024/01/17 07:08:25;;;;;;;8.27;5.37;;;-1.80;74.40;;;;;;6274297;28;20192;-65
2024/01/17 07:11:25;;;;;;;8.37;5.87;;;-1.70;74.20;;;;;;6256615;28;20196;-65
2024/01/17 07:14:26;;;;;;;8.07;5.47;;;-1.70;74.00;;;;;;6299750;28;20184;-65
2024/01/17 07:17:27;;;;;;;7.97;5.17;;;-1.70;73.30;;;;;;6267901;28;20228;-65
2024/01/17 07:20:27;;;;;;;10.20;6.67;;;-1.60;73.40;;;;;;6264176;28;20188;-65
2024/01/17 07:23:28;;;;;;;8.87;5.77;;;-1.60;73.50;;;;;;6253654;28;20189;-65
2024/01/17 07:26:29;;;;;;;8.83;4.63;;;-1.60;73.10;;;;;;6269687;28;20209;-65
2024/01/17 07:29:29;;;;;;;7.60;4.97;;;-1.60;73.20;;;;;;6265324;28;20316;-65
2024/01/17 07:32:30;;;;;;;8.67;5.43;;;-1.60;73.10;;;;;;6264214;28;20188;-65
2024/01/17 07:35:31;;;;;;;6.47;5.07;;;-1.60;73.70;;;;;;6268422;28;20205;-65
2024/01/17 07:38:32;;;;;;;8.80;5.50;;;-1.50;73.30;;;;;;6276995;28;20209;-65
2024/01/17 07:41:32;;;;;;;10.23;5.07;;;-1.50;73.10;;;;;;6286701;28;20215;-65
2024/01/17 07:44:33;;;;;;;10.47;5.93;;;-1.50;72.60;;;;;;6271759;28;20236;-65
2024/01/17 07:47:34;;;;;;;6.13;4.47;;;-1.40;72.90;;;;;;6264148;28;20200;-65
2024/01/17 07:50:35;;;;;;;5.93;4.30;;;-1.40;72.10;;;;;;6284548;28;20189;-65
2024/01/17 07:53:36;;;;;;;7.83;4.77;;;-1.30;72.70;;;;;;6268915;28;20205;-65
2024/01/17 07:56:36;;;;;;;5.80;4.73;;;-1.30;72.50;;;;;;6269571;28;20217;-65
2024/01/17 07:59:37;;;;;;;7.40;5.00;;;-1.20;72.70;;;;;;6289923;28;20241;-65
2024/01/17 08:02:39;;;;;;;7.23;4.43;;;-1.10;72.70;;;;;;6277153;28;20184;-65
2024/01/17 08:05:40;;;;;;;8.57;4.83;;;-1.10;72.60;;;;;;6292119;28;20191;-65
2024/01/17 08:08:41;;;;;;;8.87;4.50;;;-1.10;72.20;;;;;;6275551;28;20188;-65
2024/01/17 08:11:41;;;;;;;7.47;4.60;;;-1.00;72.10;;;;;;6273364;28;20196;-65
2024/01/17 08:14:42;;;;;;;8.00;4.97;;;-1.00;71.50;;;;;;6303897;28;20208;-65
2024/01/17 08:17:44;;;;;;;7.50;4.70;;;-0.90;72.00;;;;;;6257755;28;20212;-65
2024/01/17 08:20:45;;;;;;;7.97;4.80;;;-0.90;71.50;;;;;;6264682;28;20237;-65
2024/01/17 08:23:45;;;;;;;10.70;4.87;;;-0.90;71.70;;;;;;6280708;28;20192;-65
2024/01/17 08:26:47;;;;;;;7.57;5.77;;;-0.80;71.40;;;;;;6269322;28;20266;-65
2024/01/17 08:29:48;;;;;;;9.50;6.43;;;-0.70;71.20;;;;;;6293823;28;20192;-65
2024/01/17 08:32:49;;;;;;;9.57;6.40;;;-0.70;70.80;;;;;;6268893;28;20185;-65
2024/01/17 08:35:49;;;;;;;8.27;5.50;;;-0.60;69.40;;;;;;6295551;28;20195;-65
2024/01/17 08:38:50;;;;;;;10.83;6.30;;;-0.70;68.90;;;;;;6265746;28;20240;-65
2024/01/17 08:41:51;;;;;;;19.10;10.27;;;-0.60;69.40;;;;;;6275971;28;20219;-65
2024/01/17 08:44:51;;;;;;;18.83;11.27;;;-0.60;69.90;;;;;;6261944;28;20682;-65
2024/01/17 08:47:52;;;;;;;19.00;11.03;;;-0.70;69.80;;;;;;6272464;28;20198;-65
2024/01/17 08:50:53;;;;;;;19.10;11.43;;;-0.60;70.90;;;;;;6275456;28;20204;-65
2024/01/17 08:53:53;;;;;;;23.80;13.00;;;-0.60;70.50;;;;;;6278530;28;20197;-65
2024/01/17 08:56:54;;;;;;;17.90;11.73;;;-0.60;70.70;;;;;;6274340;28;20208;-65
2024/01/17 08:59:55;;;;;;;20.03;11.23;;;-0.50;70.50;;;;;;6276147;28;20326;-65
2024/01/17 09:02:55;;;;;;;16.40;11.07;;;-0.40;70.70;;;;;;6273214;28;20200;-65
2024/01/17 09:05:56;;;;;;;19.10;11.33;;;-0.40;70.20;;;;;;6273988;28;20228;-65
2024/01/17 09:08:57;;;;;;;18.97;10.87;;;-0.40;70.10;;;;;;6284028;28;20192;-65
2024/01/17 09:11:57;;;;;;;23.37;12.97;;;-0.30;70.10;;;;;;6279472;28;20216;-66
2024/01/17 09:14:59;;;;;;;23.33;13.17;;;-0.20;70.60;;;;;;6301087;28;20188;-66
2024/01/17 09:17:59;;;;;;;20.70;12.10;;;-0.10;70.00;;;;;;6290781;28;20212;-66
2024/01/17 09:21:00;;;;;;;20.50;11.73;;;-0.10;70.10;;;;;;6284933;28;20186;-65
2024/01/17 09:24:01;;;;;;;17.03;10.50;;;-0.20;70.00;;;;;;6288320;28;20247;-65
2024/01/17 09:27:02;;;;;;;18.23;10.93;;;-0.10;69.20;;;;;;6288988;28;20195;-65
2024/01/17 09:30:03;;;;;;;15.00;10.03;;;-0.10;68.80;;;;;;6279557;28;20247;-65
2024/01/17 09:33:04;;;;;;;16.20;9.07;;;0.00;69.10;;;;;;6276909;28;20200;-65
2024/01/17 09:36:05;;;;;;;12.90;8.50;;;0.00;68.40;;;;;;6281081;28;20193;-65
2024/01/17 09:39:06;;;;;;;15.23;8.80;;;;;;;;;;6269371;28;20225;-65
2024/01/17 09:42:07;;;;;;;22.40;11.30;;;;;;;;;;6276692;28;20274;-65
2024/01/17 09:45:10;;;;;;;19.63;10.17;;;0.30;66.60;;;;;;6308082;28;20244;-65
2024/01/17 09:48:14;;;;;;;18.10;9.47;;;0.40;66.50;;;;;;6285680;28;20219;-66
2024/01/17 09:51:18;;;;;;;15.87;9.17;;;0.40;65.50;;;;;;6300240;28;20196;-66
2024/01/17 09:54:24;;;;;;;16.47;9.20;;;0.40;65.90;;;;;;6288393;28;20191;-65
2024/01/17 09:57:28;;;;;;;14.73;8.10;;;0.50;64.70;;;;;;6296954;28;20196;-65
2024/01/17 10:00:29;;;;;;;14.57;7.83;;;0.50;65.10;;;;;;6298959;28;20265;-65
2024/01/17 10:03:34;;;;;;;14.43;8.07;;;0.60;64.00;;;;;;6264736;28;20196;-65
2024/01/17 10:06:37;;;;;;;13.30;7.90;;;0.60;64.70;;;;;;6301965;28;20177;-65
2024/01/17 10:09:38;;;;;;;15.83;8.60;;;0.60;64.00;;;;;;6307479;28;20271;-65
2024/01/17 10:12:41;;;;;;;15.33;8.57;;;0.70;64.30;;;;;;6264149;28;20214;-66
2024/01/17 10:15:44;;;;;;;10.23;6.63;;;0.70;64.50;;;;;;6279840;28;20189;-65
2024/01/17 10:18:45;;;;;;;12.20;7.27;;;0.80;64.30;;;;;;6299365;28;20249;-65
2024/01/17 10:21:45;;;;;;;8.67;6.20;;;0.80;63.30;;;;;;6265460;28;20181;-65
2024/01/17 10:24:51;;;;;;;12.20;6.90;;;1.00;63.70;;;;;;6273673;28;20188;-66
2024/01/17 10:27:53;;;;;;;7.70;5.97;;;1.00;63.10;;;;;;6275921;28;20185;-66
2024/01/17 10:30:53;;;;;;;11.00;6.07;;;1.10;62.50;;;;;;6266272;28;20204;-66
2024/01/17 10:33:54;;;;;;;10.00;6.70;;;1.10;61.20;;;;;;6264346;28;20745;-65
2024/01/17 10:36:55;;;;;;;13.30;6.50;;;1.10;61.50;;;;;;6265572;28;20209;-65
2024/01/17 10:40:10;;;;;;;10.77;7.50;;;1.20;62.00;;;;;;6262290;28;20237;-65
2024/01/17 10:43:13;;;;;;;11.93;5.93;;;;;;;;;;6302509;28;20189;-66
2024/01/17 10:46:14;;;;;;;13.67;7.17;;;;;;;;;;6281085;28;20189;-66
2024/01/17 10:49:15;;;;;;;9.17;6.30;;;;;;;;;;6282186;28;20185;-63
2024/01/17 10:52:17;;;;;;;13.07;6.90;;;;;;;;;;6276370;28;20185;-63
2024/01/17 10:55:18;;;;;;;13.93;6.77;;;;;;;;;;6302692;28;20188;-63
2024/01/17 10:58:21;;;;;;;8.80;6.30;;;1.30;61.20;;;;;;6284821;28;20241;-63
2024/01/17 11:01:26;;;;;;;9.67;6.43;;;;;;;;;;6295634;28;20184;-63
2024/01/17 11:04:30;;;;;;;10.70;7.10;;;;;;;;;;6292214;28;20203;-63
2024/01/17 11:07:32;;;;;;;9.60;6.37;;;;;;;;;;6305952;28;20275;-63
2024/01/17 11:10:33;;;;;;;8.70;6.40;;;;;;;;;;6301790;28;20204;-63
2024/01/17 11:13:35;;;;;;;9.33;6.27;;;;;;;;;;6283246;28;20284;-63
2024/01/17 11:16:38;;;;;;;10.00;6.30;;;;;;;;;;6303220;28;20188;-65
2024/01/17 11:19:41;;;;;;;10.70;6.10;;;;;;;;;;6271094;28;20216;-65
2024/01/17 11:22:43;;;;;;;11.07;6.93;;;;;;;;;;6295046;28;20181;-65
2024/01/17 11:26:16;;;;;;;12.80;7.07;;;;;;;;;;6283422;28;20181;-65
2024/01/17 11:29:43;;;;;;;10.07;6.03;;;;;;;;;;6280722;28;20224;-65
2024/01/17 11:32:47;;;;;;;16.50;7.03;;;;;;;;;;6281457;28;20235;-65
2024/01/17 11:35:49;;;;;;;10.63;6.17;;;;;;;;;;6302466;28;20192;-65
2024/01/17 11:38:50;;;;;;;13.20;6.37;;;;;;;;;;6290606;28;20209;-65
2024/01/17 11:41:51;;;;;;;11.13;5.77;;;;;;;;;;6279334;28;20188;-65
2024/01/17 11:44:52;;;;;;;7.83;5.30;;;;;;;;;;6306269;28;20275;-65
2024/01/17 11:47:55;;;;;;;15.67;6.83;;;;;;;;;;6304083;28;20195;-65
2024/01/17 11:51:06;;;;;;;15.27;7.13;;;;;;;;;;6301519;28;20192;-65
2024/01/17 11:54:12;;;;;;;15.47;7.07;;;2.60;58.20;;;;;;6295817;28;20189;-65
2024/01/17 11:57:14;;;;;;;8.87;5.83;;;2.80;56.40;;;;;;6300340;28;20226;-65
2024/01/17 12:00:20;;;;;;;9.43;5.93;;;2.90;56.60;;;;;;6276136;28;20225;-65
2024/01/17 12:03:32;;;;;;;9.73;6.13;;;2.90;56.60;;;;;;6286301;28;20201;-65
2024/01/17 12:06:35;;;;;;;15.13;8.10;;;2.90;56.60;;;;;;6287378;28;20184;-65
2024/01/17 12:09:36;;;;;;;10.97;6.03;;;3.00;56.60;;;;;;6277008;28;20276;-65
2024/01/17 12:12:40;;;;;;;9.57;6.30;;;3.00;56.20;;;;;;6286051;28;20211;-65
2024/01/17 12:15:41;;;;;;;10.97;6.17;;;3.00;56.10;;;;;;6305716;28;20200;-65
2024/01/17 12:18:42;;;;;;;13.57;5.53;;;24.00;50.00;;;;;;6263747;28;20235;-66
2024/01/17 12:21:43;;;;;;;10.97;6.80;;;3.00;56.50;;;;;;6268820;28;20251;-66
2024/01/17 12:24:47;;;;;;;11.27;6.90;;;;;;;;;;6281087;28;20203;-66
2024/01/17 12:27:55;;;;;;;9.70;6.47;;;;;;;;;;6287547;28;20201;-66
2024/01/17 12:31:00;;;;;;;10.23;6.70;;;;;;;;;;6276847;28;20212;-66
2024/01/17 12:34:01;;;;;;;8.53;7.07;;;;;;;;;;6300507;28;20189;-66
2024/01/17 12:37:02;;;;;;;11.17;6.97;;;;;;;;;;6276151;28;20240;-66
2024/01/17 12:40:04;;;;;;;9.30;6.67;;;;;;;;;;6282367;28;20200;-66
2024/01/17 12:43:05;;;;;;;10.23;7.17;;;;;;;;;;6296702;28;20188;-65
2024/01/17 12:46:06;;;;;;;11.03;6.63;;;;;;;;;;6281576;28;20196;-65
2024/01/17 12:49:13;;;;;;;10.17;7.40;;;;;;;;;;6306663;28;20197;-65
2024/01/17 12:52:18;;;;;;;9.63;7.10;;;;;;;;;;6300150;28;20197;-65
2024/01/17 12:55:22;;;;;;;12.90;7.37;;;;;;;;;;6291221;28;20208;-65
2024/01/17 12:58:23;;;;;;;8.77;6.77;;;;;;;;;;6302511;28;20240;-66
2024/01/17 13:01:25;;;;;;;10.97;7.40;;;;;;;;;;6292966;28;20220;-65
2024/01/17 13:04:26;;;;;;;11.53;7.10;;;;;;;;;;6308785;28;20192;-66
2024/01/17 13:07:27;;;;;;;10.50;7.50;;;;;;;;;;6304228;28;20217;-65
2024/01/17 13:10:33;;;;;;;11.87;7.67;;;;;;;;;;6286237;28;20192;-66
2024/01/17 13:13:34;;;;;;;14.57;8.73;;;;;;;;;;6296554;28;20194;-65
2024/01/17 13:16:35;;;;;;;11.83;7.70;;;;;;;;;;6292620;28;20575;-65
2024/01/17 13:19:36;;;;;;;14.33;7.53;;;;;;;;;;6281554;28;20192;-66
2024/01/17 13:22:37;;;;;;;10.90;7.53;;;;;;;;;;6271492;28;20200;-65
2024/01/17 13:25:38;;;;;;;13.20;7.70;;;;;;;;;;6296585;28;20283;-66
2024/01/17 13:28:39;;;;;;;11.00;7.43;;;;;;;;;;6283214;28;20199;-65
2024/01/17 13:31:41;;;;;;;10.30;7.50;;;;;;;;;;6289577;28;20192;-65
2024/01/17 13:34:43;;;;;;;10.10;7.07;;;;;;;;;;6288346;28;20204;-65
2024/01/17 13:37:45;;;;;;;12.03;7.80;;;;;;;;;;6283217;28;20271;-65
2024/01/17 13:40:46;;;;;;;16.03;8.33;;;;;;;;;;6292542;28;20195;-65
2024/01/17 13:43:47;;;;;;;14.07;8.67;;;;;;;;;;6287005;28;20188;-65
2024/01/17 13:46:48;;;;;;;16.07;8.97;;;;;;;;;;6297036;28;20195;-66
2024/01/17 13:49:49;;;;;;;16.63;9.50;;;;;;;;;;6287912;28;20184;-66
2024/01/17 13:52:51;;;;;;;12.60;7.03;;;;;;;;;;6279103;28;20207;-65
2024/01/17 13:55:53;;;;;;;11.37;8.17;;;;;;;;;;6279750;28;20185;-65
2024/01/17 13:58:54;;;;;;;15.50;9.50;;;;;;;;;;6272802;28;20241;-66
2024/01/17 14:01:56;;;;;;;9.97;7.13;;;;;;;;;;6288743;28;20188;-65
2024/01/17 14:04:57;;;;;;;12.70;7.67;;;;;;;;;;6287167;28;20192;-65
2024/01/17 14:07:58;;;;;;;10.40;7.23;;;;;;;;;;6285978;28;20193;-65
2024/01/17 14:11:00;;;;;;;18.93;9.33;;;;;;;;;;6301296;28;20188;-65
2024/01/17 14:14:01;;;;;;;15.67;10.20;;;;;;;;;;6294498;28;20339;-65
2024/01/17 14:17:04;;;;;;;21.07;10.13;;;;;;;;;;6287618;28;20331;-65
2024/01/17 14:20:08;;;;;;;17.17;9.43;;;;;;;;;;6281834;28;20284;-65
2024/01/17 14:23:09;;;;;;;19.30;9.70;;;;;;;;;;6289519;28;20189;-65
2024/01/17 14:26:10;;;;;;;10.87;8.63;;;;;;;;;;6293653;28;20189;-64
2024/01/17 14:29:11;;;;;;;15.97;8.90;;;;;;;;;;6279687;28;20209;-67
2024/01/17 14:32:12;;;;;;;13.80;9.13;;;;;;;;;;6291447;28;20246;-66
2024/01/17 14:35:13;;;;;;;12.23;8.50;;;;;;;;;;6283501;28;20197;-65
2024/01/17 14:38:14;;;;;;;13.53;8.93;;;;;;;;;;6289420;28;20276;-67
2024/01/17 14:41:16;;;;;;;19.57;11.50;;;;;;;;;;6279171;28;20210;-64
2024/01/17 14:44:19;;;;;;;19.00;11.10;;;;;;;;;;6275380;28;20192;-63
2024/01/17 14:47:20;;;;;;;15.70;10.83;;;;;;;;;;6294525;28;20220;-63
2024/01/17 14:50:21;;;;;;;16.53;10.57;;;;;;;;;;6291137;28;20261;-61
2024/01/17 14:53:22;;;;;;;17.83;10.33;;;;;;;;;;6282163;28;20211;-63
2024/01/17 14:56:23;;;;;;;15.87;11.20;;;;;;;;;;6294505;28;20327;-63
2024/01/17 14:59:24;;;;;;;17.33;10.60;;;;;;;;;;6282215;28;20248;-62
2024/01/17 15:02:25;;;;;;;22.30;10.63;;;;;;;;;;6288812;28;20185;-62
2024/01/17 15:05:26;;;;;;;15.97;10.50;;;;;;;;;;6274650;28;20199;-63
2024/01/17 15:08:30;;;;;;;18.20;10.87;;;;;;;;;;6282470;28;20188;-62
2024/01/17 15:11:31;;;;;;;18.97;11.50;;;;;;;;;;6282338;28;20196;-63
2024/01/17 15:14:32;;;;;;;20.20;13.03;;;;;;;;;;6287710;28;20203;-62
2024/01/17 15:17:33;;;;;;;21.23;12.23;;;;;;;;;;6300799;28;20211;-64
2024/01/17 15:20:34;;;;;;;15.00;10.63;;;;;;;;;;6293749;28;20216;-64
2024/01/17 15:23:35;;;;;;;21.27;11.67;;;;;;;;;;6290701;28;20192;-63
2024/01/17 15:26:36;;;;;;;17.67;11.70;;;;;;;;;;6276497;28;20211;-62
2024/01/17 15:29:42;;;;;;;24.37;13.73;;;;;;;;;;6298763;28;20188;-62
2024/01/17 15:32:44;;;;;;;19.97;11.77;;;;;;;;;;6300431;28;20196;-63
2024/01/17 15:35:46;;;;;;;21.93;11.40;;;;;;;;;;6283947;28;20332;-62
2024/01/17 15:38:52;;;;;;;16.93;11.50;;;;;;;;;;6273973;28;20301;-62
2024/01/17 15:41:53;;;;;;;14.70;9.97;;;;;;;;;;6286786;28;20197;-61
2024/01/17 15:44:54;;;;;;;15.87;9.83;;;;;;;;;;6283542;28;20191;-62
2024/01/17 15:47:55;;;;;;;16.03;9.77;;;;;;;;;;6284842;28;20246;-63
2024/01/17 15:50:56;;;;;;;15.40;10.93;;;;;;;;;;6281249;28;20250;-63
2024/01/17 15:53:57;;;;;;;15.03;10.33;;;;;;;;;;6296963;28;20187;-63
2024/01/17 15:56:58;;;;;;;17.80;10.00;;;;;;;;;;6285269;28;20223;-63
2024/01/17 16:00:00;;;;;;;17.40;10.00;;;;;;;;;;6288557;28;20326;-63
2024/01/17 16:03:01;;;;;;;19.33;10.40;;;;;;;;;;6286501;28;20184;-63
2024/01/17 16:06:04;;;;;;;16.53;9.83;;;;;;;;;;6285343;28;20199;-64
2024/01/17 16:09:11;;;;;;;14.80;9.60;;;;;;;;;;6282329;28;20197;-63
2024/01/17 16:12:12;;;;;;;15.27;10.10;;;;;;;;;;6295644;28;20217;-64
2024/01/17 16:15:13;;;;;;;21.60;10.93;;;;;;;;;;6288000;28;20204;-65
2024/01/17 16:18:14;;;;;;;18.03;9.93;;;;;;;;;;6278909;28;20565;-65
2024/01/17 16:21:15;;;;;;;19.27;11.07;;;;;;;;;;6284035;28;20184;-65